Time;durP1;ratioP1;P1;durP2;ratioP2;P2;SDS_P1;SDS_P2;PMS_P1;PMS_P2;Temp;Humidity;BMP_temperature;BMP_pressure;BME280_temperature;BME280_humidity;BME280_pressure;Samples;Min_cycle;Max_cycle;Signal;HPM_P1;HPM_P2
2021/09/13 00:00:51;;;;;;;3.93;3.40;;;;;;;;;;4961216;28;20301;-81
2021/09/13 00:03:17;;;;;;;4.35;3.45;;;;;;;;;;4962592;28;20514;-81
2021/09/13 00:05:43;;;;;;;3.70;3.13;;;;;;;;;;4965712;28;20276;-81
2021/09/13 00:08:09;;;;;;;2.97;2.70;;;;;;;;;;4961651;29;20183;-80
2021/09/13 00:10:35;;;;;;;4.17;3.77;;;;;;;;;;4976570;28;20209;-80
2021/09/13 00:13:01;;;;;;;4.40;3.73;;;;;;;;;;4962150;28;20461;-80
2021/09/13 00:15:27;;;;;;;3.08;2.78;;;;;;;;;;4962270;28;20440;-81
2021/09/13 00:17:53;;;;;;;4.05;3.40;;;;;;;;;;4979394;28;20551;-81
2021/09/13 00:20:19;;;;;;;3.60;3.30;;;;;;;;;;4958976;28;20191;-81
2021/09/13 00:22:45;;;;;;;4.33;3.27;;;;;;;;;;4959089;29;20188;-80
2021/09/13 00:25:11;;;;;;;3.87;3.27;;;;;;;;;;4962768;28;20533;-81
2021/09/13 00:27:37;;;;;;;4.10;3.67;;;;;;;;;;4962910;28;20475;-80
2021/09/13 00:30:03;;;;;;;3.42;3.13;;;;;;;;;;4977812;28;20202;-81
2021/09/13 00:32:29;;;;;;;4.05;3.22;;;;;;;;;;4963462;28;20183;-81
2021/09/13 00:34:55;;;;;;;3.30;3.00;;;;;;;;;;4961234;28;20196;-81
2021/09/13 00:37:21;;;;;;;3.35;3.05;;;;;;;;;;4961984;28;20692;-81
2021/09/13 00:39:47;;;;;;;4.72;2.95;;;;;;;;;;4961741;28;20212;-81
2021/09/13 00:42:13;;;;;;;3.50;3.13;;;;;;;;;;4961399;28;20221;-81
2021/09/13 00:44:39;;;;;;;6.07;3.80;;;;;;;;;;4980283;28;20188;-80
2021/09/13 00:47:05;;;;;;;3.25;2.97;;;;;;;;;;4976897;28;20424;-80
2021/09/13 00:49:32;;;;;;;3.90;3.55;;;;;;;;;;4961245;28;20189;-81
2021/09/13 00:51:58;;;;;;;3.88;3.25;;;;;;;;;;4960475;28;20224;-81
2021/09/13 00:54:24;;;;;;;3.30;3.00;;;;;;;;;;4976147;28;20264;-80
2021/09/13 00:56:50;;;;;;;7.57;3.75;;;;;;;;;;4963694;28;20464;-81
2021/09/13 00:59:16;;;;;;;6.18;3.40;;;;;;;;;;4963219;28;20177;-81
2021/09/13 01:01:42;;;;;;;3.63;3.20;;;;;;;;;;4961569;28;20261;-80
2021/09/13 01:04:08;;;;;;;3.95;3.60;;;;;;;;;;4961387;29;20465;-81
2021/09/13 01:06:34;;;;;;;5.28;3.50;;;;;;;;;;4961885;28;20186;-81
2021/09/13 01:09:00;;;;;;;3.33;2.88;;;;;;;;;;4961411;29;20200;-81
2021/09/13 01:11:26;;;;;;;3.97;3.20;;;;;;;;;;4963404;29;20205;-81
2021/09/13 01:13:52;;;;;;;6.43;4.15;;;;;;;;;;4964387;28;20188;-80
2021/09/13 01:16:18;;;;;;;3.55;3.25;;;;;;;;;;4965400;28;20251;-81
2021/09/13 01:18:44;;;;;;;7.63;3.40;;;;;;;;;;4966420;28;20249;-81
2021/09/13 01:21:10;;;;;;;3.50;3.20;;;;;;;;;;4965525;28;20439;-81
2021/09/13 01:23:37;;;;;;;3.63;3.33;;;;;;;;;;4968799;28;20421;-80
2021/09/13 01:26:04;;;;;;;3.45;3.15;;;;;;;;;;4965382;28;20221;-80
2021/09/13 01:28:30;;;;;;;6.15;3.50;;;;;;;;;;4963825;28;20224;-80
2021/09/13 01:30:56;;;;;;;3.78;3.47;;;;;;;;;;4980032;28;20200;-80
2021/09/13 01:33:23;;;;;;;3.45;3.15;;;;;;;;;;4965415;28;20185;-80
2021/09/13 01:35:50;;;;;;;3.63;3.30;;;;;;;;;;4967463;28;20184;-80
2021/09/13 01:38:17;;;;;;;3.20;2.60;;;;;;;;;;4969304;28;20547;-81
2021/09/13 01:40:47;;;;;;;4.50;3.47;;;;;;;;;;4965011;28;20188;-80
2021/09/13 01:43:13;;;;;;;5.22;3.50;;;;;;;;;;4963174;29;20192;-80
2021/09/13 01:45:39;;;;;;;2.92;2.72;;;;;;;;;;4964441;28;20220;-80
2021/09/13 01:48:05;;;;;;;3.75;2.85;;;;;;;;;;4966061;28;20192;-80
2021/09/13 01:50:31;;;;;;;4.22;3.50;;;;;;;;;;4968095;28;20263;-80
2021/09/13 01:52:57;;;;;;;3.80;3.20;;;;;;;;;;4966269;28;20196;-80
2021/09/13 01:55:23;;;;;;;6.33;4.20;;;;;;;;;;4962974;28;20186;-80
2021/09/13 01:57:49;;;;;;;4.97;3.58;;;;;;;;;;4963986;28;20523;-81
2021/09/13 02:00:15;;;;;;;3.80;3.43;;;;;;;;;;4964583;28;20259;-80
2021/09/13 02:02:41;;;;;;;4.10;3.22;;;;;;;;;;4967587;28;20424;-81
2021/09/13 02:05:08;;;;;;;3.40;3.10;;;;;;;;;;4965594;29;20173;-81
2021/09/13 02:07:34;;;;;;;3.75;3.10;;;;;;;;;;4966651;28;20196;-80
2021/09/13 02:09:59;;;;;;;4.50;2.87;;;;;;;;;;4979159;28;20218;-80
2021/09/13 02:12:26;;;;;;;3.30;3.00;;;;;;;;;;4964737;28;20444;-80
2021/09/13 02:14:52;;;;;;;3.63;3.33;;;;;;;;;;4981130;28;20416;-80
2021/09/13 02:17:18;;;;;;;3.75;3.38;;;;;;;;;;4965433;28;20205;-81
2021/09/13 02:19:46;;;;;;;4.45;3.10;;;;;;;;;;4978596;28;20180;-80
2021/09/13 02:22:12;;;;;;;4.15;2.80;;;;;;;;;;4962363;28;20180;-80
2021/09/13 02:24:38;;;;;;;4.70;3.50;;;;;;;;;;4963137;28;20223;-80
2021/09/13 02:27:04;;;;;;;4.22;3.30;;;;;;;;;;4965228;28;20500;-80
2021/09/13 02:29:30;;;;;;;3.25;2.95;;;;;;;;;;4967077;29;20213;-80
2021/09/13 02:31:56;;;;;;;2.95;2.72;;;;;;;;;;4978537;28;20745;-80
2021/09/13 02:34:22;;;;;;;3.47;3.17;;;;;;;;;;4963901;28;20200;-80
2021/09/13 02:36:48;;;;;;;3.70;3.40;;;;;;;;;;4964564;28;20471;-80
2021/09/13 02:39:14;;;;;;;3.73;3.43;;;;;;;;;;4964282;28;20444;-80
2021/09/13 02:41:40;;;;;;;4.23;3.80;;;;;;;;;;4966887;28;20430;-80
2021/09/13 02:44:06;;;;;;;3.97;3.42;;;;;;;;;;4964317;28;20439;-80
2021/09/13 02:46:32;;;;;;;3.55;3.15;;;;;;;;;;4965810;28;20192;-80
2021/09/13 02:48:58;;;;;;;3.67;3.37;;;;;;;;;;4964094;28;20195;-80
2021/09/13 02:51:24;;;;;;;4.07;3.67;;;;;;;;;;4963676;28;20453;-80
2021/09/13 02:53:50;;;;;;;3.60;3.30;;;;;;;;;;4973364;28;20550;-80
2021/09/13 02:56:17;;;;;;;3.77;3.43;;;;;;;;;;4964649;28;20198;-80
2021/09/13 02:58:43;;;;;;;3.95;3.00;;;;;;;;;;4962992;28;20471;-80
2021/09/13 03:01:09;;;;;;;4.30;3.90;;;;;;;;;;4963810;28;20231;-80
2021/09/13 03:03:35;;;;;;;3.80;3.42;;;;;;;;;;4961793;28;20192;-81
2021/09/13 03:06:01;;;;;;;4.22;3.90;;;;;;;;;;4979711;28;20677;-80
2021/09/13 03:08:27;;;;;;;3.97;3.13;;;;;;;;;;4966413;29;20245;-81
2021/09/13 03:10:53;;;;;;;4.63;3.80;;;;;;;;;;4962356;28;20435;-80
2021/09/13 03:13:19;;;;;;;6.55;3.55;;;;;;;;;;4961566;29;20478;-80
2021/09/13 03:15:45;;;;;;;3.53;3.10;;;;;;;;;;4963180;28;20198;-80
2021/09/13 03:18:11;;;;;;;3.20;2.90;;;;;;;;;;4963401;28;20206;-80
2021/09/13 03:20:37;;;;;;;3.63;3.28;;;;;;;;;;4962973;29;20242;-80
2021/09/13 03:23:03;;;;;;;3.87;3.47;;;;;;;;;;4963461;28;20505;-80
2021/09/13 03:25:30;;;;;;;7.30;3.65;;;;;;;;;;4979790;28;20444;-80
2021/09/13 03:27:58;;;;;;;5.13;3.65;;;;;;;;;;4962706;28;20213;-79
2021/09/13 03:30:24;;;;;;;3.60;3.30;;;;;;;;;;4965221;28;20193;-80
2021/09/13 03:32:50;;;;;;;3.55;3.25;;;;;;;;;;4979037;28;20645;-80
2021/09/13 03:35:16;;;;;;;3.42;3.13;;;;;;;;;;4963108;28;20268;-80
2021/09/13 03:37:42;;;;;;;4.37;3.97;;;;;;;;;;4963454;28;20218;-80
2021/09/13 03:40:08;;;;;;;5.07;3.00;;;;;;;;;;4977758;28;20516;-81
2021/09/13 03:42:35;;;;;;;3.72;3.08;;;;;;;;;;4961143;29;20808;-80
2021/09/13 03:45:01;;;;;;;6.07;4.05;;;;;;;;;;4978832;28;20530;-80
2021/09/13 03:47:27;;;;;;;4.18;3.88;;;;;;;;;;4964838;29;20172;-80
2021/09/13 03:49:53;;;;;;;3.83;3.35;;;;;;;;;;4961495;28;20188;-80
2021/09/13 03:52:19;;;;;;;3.83;3.47;;;;;;;;;;4962076;28;20190;-80
2021/09/13 03:54:45;;;;;;;3.87;3.27;;;;;;;;;;4962535;28;20433;-80
2021/09/13 03:57:11;;;;;;;5.83;3.80;;;;;;;;;;4962435;28;20520;-81
2021/09/13 03:59:37;;;;;;;3.70;3.40;;;;;;;;;;4966083;28;20459;-79
2021/09/13 04:02:03;;;;;;;3.70;3.40;;;;;;;;;;4960823;28;20500;-80
2021/09/13 04:04:30;;;;;;;6.38;4.40;;;;;;;;;;4960711;29;20199;-81
2021/09/13 04:07:14;;;;;;;4.07;3.30;;;;;;;;;;4962972;28;20204;-80
2021/09/13 04:09:47;;;;;;;3.67;3.13;;;;;;;;;;4962674;28;20219;-80
2021/09/13 04:12:13;;;;;;;5.68;3.67;;;;;;;;;;4971677;28;20193;-80
2021/09/13 04:14:40;;;;;;;4.03;3.55;;;;;;;;;;4965694;28;20191;-80
2021/09/13 04:17:06;;;;;;;3.40;3.10;;;;;;;;;;4963360;28;20212;-80
2021/09/13 04:19:32;;;;;;;4.00;3.60;;;;;;;;;;4962242;28;20184;-80
2021/09/13 04:21:58;;;;;;;4.53;3.38;;;;;;;;;;4961561;28;20462;-80
2021/09/13 04:24:24;;;;;;;3.80;3.50;;;;;;;;;;4976502;28;20221;-80
2021/09/13 04:26:50;;;;;;;5.30;3.37;;;;;;;;;;4964410;28;20260;-80
2021/09/13 04:29:16;;;;;;;3.88;3.58;;;;;;;;;;4963504;28;20874;-80
2021/09/13 04:31:42;;;;;;;3.85;3.42;;;;;;;;;;4961853;28;20546;-80
2021/09/13 04:34:08;;;;;;;6.05;3.35;;;;;;;;;;4961484;28;20250;-80
2021/09/13 04:36:34;;;;;;;4.03;3.05;;;;;;;;;;4962192;28;20669;-80
2021/09/13 04:39:00;;;;;;;3.47;3.17;;;;;;;;;;4963434;28;20300;-80
2021/09/13 04:41:27;;;;;;;3.70;3.17;;;;;;;;;;4964731;29;20180;-80
2021/09/13 04:43:53;;;;;;;3.60;3.30;;;;;;;;;;4961225;28;20184;-80
2021/09/13 04:46:19;;;;;;;3.77;3.30;;;;;;;;;;4960316;28;20196;-80
2021/09/13 04:48:45;;;;;;;3.00;2.80;;;;;;;;;;4961390;28;20440;-80
2021/09/13 04:51:11;;;;;;;3.75;3.35;;;;;;;;;;4960905;28;20538;-80
2021/09/13 04:53:37;;;;;;;4.13;3.75;;;;;;;;;;4965449;28;20181;-80
2021/09/13 04:56:03;;;;;;;3.92;3.20;;;;;;;;;;4960936;28;20267;-80
2021/09/13 04:58:29;;;;;;;4.18;3.50;;;;;;;;;;4961881;28;20698;-80
2021/09/13 05:00:55;;;;;;;4.20;3.70;;;;;;;;;;4961492;28;20324;-80
2021/09/13 05:03:21;;;;;;;5.22;3.50;;;;;;;;;;4961608;28;20432;-80
2021/09/13 05:05:47;;;;;;;3.63;3.30;;;;;;;;;;4964108;28;20197;-80
2021/09/13 05:08:13;;;;;;;3.55;3.20;;;;;;;;;;4963200;28;20521;-80
2021/09/13 05:10:39;;;;;;;3.30;2.90;;;;;;;;;;4961657;28;20195;-80
2021/09/13 05:13:06;;;;;;;5.13;4.10;;;;;;;;;;4961544;28;20184;-80
2021/09/13 05:15:32;;;;;;;3.70;3.40;;;;;;;;;;4961324;28;20220;-80
2021/09/13 05:17:57;;;;;;;3.90;3.50;;;;;;;;;;4978378;28;20216;-80
2021/09/13 05:20:23;;;;;;;3.67;3.37;;;;;;;;;;4958140;29;20181;-80
2021/09/13 05:22:49;;;;;;;4.20;3.53;;;;;;;;;;4959764;29;20431;-81
2021/09/13 05:25:17;;;;;;;4.30;3.60;;;;;;;;;;4960950;28;20449;-80
2021/09/13 05:27:43;;;;;;;5.30;4.25;;;;;;;;;;4960788;28;20195;-80
2021/09/13 05:30:09;;;;;;;3.97;3.33;;;;;;;;;;4962969;28;20190;-80
2021/09/13 05:32:36;;;;;;;5.20;3.17;;;;;;;;;;4964912;28;20424;-80
2021/09/13 05:35:02;;;;;;;5.22;3.50;;;;;;;;;;4960050;28;20452;-80
2021/09/13 05:37:28;;;;;;;4.60;3.75;;;;;;;;;;4961582;28;20215;-80
2021/09/13 05:39:53;;;;;;;4.07;3.67;;;;;;;;;;4961226;28;20180;-80
2021/09/13 05:42:19;;;;;;;5.95;3.40;;;;;;;;;;4961396;28;20476;-80
2021/09/13 05:44:45;;;;;;;5.28;3.55;;;;;;;;;;4963091;28;20244;-80
2021/09/13 05:47:11;;;;;;;4.70;3.60;;;;;;;;;;4965143;28;20168;-80
2021/09/13 05:49:37;;;;;;;3.73;3.37;;;;;;;;;;4961408;28;20448;-80
2021/09/13 05:52:04;;;;;;;6.30;3.10;;;;;;;;;;4961323;28;20925;-80
2021/09/13 05:54:30;;;;;;;4.18;3.70;;;;;;;;;;4961133;28;20193;-80
2021/09/13 05:56:56;;;;;;;4.40;3.57;;;;;;;;;;4977785;28;20220;-80
2021/09/13 05:59:23;;;;;;;3.65;3.35;;;;;;;;;;4965652;28;20453;-80
2021/09/13 06:01:49;;;;;;;4.15;3.55;;;;;;;;;;4964628;29;20244;-80
2021/09/13 06:04:16;;;;;;;4.88;3.85;;;;;;;;;;4964472;28;20192;-80
2021/09/13 06:06:42;;;;;;;3.90;3.50;;;;;;;;;;4964991;28;20184;-80
2021/09/13 06:09:09;;;;;;;4.75;3.80;;;;;;;;;;4964898;28;20188;-79
2021/09/13 06:11:35;;;;;;;3.47;3.15;;;;;;;;;;4968252;29;20579;-80
2021/09/13 06:14:01;;;;;;;3.87;3.30;;;;;;;;;;4963431;28;20214;-80
2021/09/13 06:16:27;;;;;;;4.95;3.40;;;;;;;;;;4963803;28;20436;-79
2021/09/13 06:18:53;;;;;;;4.43;3.10;;;;;;;;;;4964451;28;20206;-80
2021/09/13 06:21:19;;;;;;;4.82;3.88;;;;;;;;;;4964829;28;20489;-79
2021/09/13 06:23:45;;;;;;;4.60;3.55;;;;;;;;;;4981728;28;20253;-80
2021/09/13 06:26:12;;;;;;;6.80;4.05;;;;;;;;;;4964960;29;20733;-79
2021/09/13 06:28:38;;;;;;;3.53;3.22;;;;;;;;;;4962607;29;20191;-79
2021/09/13 06:31:04;;;;;;;4.13;3.83;;;;;;;;;;4962656;28;20208;-80
2021/09/13 06:33:31;;;;;;;5.78;3.60;;;;;;;;;;4964373;28;20627;-80
2021/09/13 06:35:57;;;;;;;4.25;3.85;;;;;;;;;;4964183;28;20181;-80
2021/09/13 06:38:23;;;;;;;6.00;4.07;;;;;;;;;;4966846;28;20213;-79
2021/09/13 06:40:49;;;;;;;5.32;4.28;;;;;;;;;;4963231;28;20479;-79
2021/09/13 06:43:16;;;;;;;10.10;4.75;;;;;;;;;;4977997;28;20188;-79
2021/09/13 06:45:44;;;;;;;4.25;3.95;;;;;;;;;;4962824;28;20249;-80
2021/09/13 06:48:11;;;;;;;5.22;4.00;;;;;;;;;;4966839;28;20178;-80
2021/09/13 06:50:38;;;;;;;13.02;5.75;;;;;;;;;;4962089;28;20183;-80
2021/09/13 06:53:05;;;;;;;6.05;5.53;;;;;;;;;;4962770;29;20272;-80
2021/09/13 06:55:31;;;;;;;4.85;4.38;;;;;;;;;;4964128;28;20443;-80
2021/09/13 06:57:58;;;;;;;8.15;4.57;;;;;;;;;;4963201;28;20198;-80
2021/09/13 07:00:25;;;;;;;6.15;4.80;;;;;;;;;;4962908;28;20225;-80
2021/09/13 07:02:51;;;;;;;4.47;4.07;;;;;;;;;;4980187;28;20185;-80
2021/09/13 07:05:17;;;;;;;6.05;5.55;;;;;;;;;;4965597;29;20268;-80
2021/09/13 07:07:43;;;;;;;12.65;9.02;;;;;;;;;;4964042;28;20192;-80
2021/09/13 07:10:11;;;;;;;5.07;4.47;;;;;;;;;;4963452;28;20193;-79
2021/09/13 07:12:37;;;;;;;6.32;4.85;;;;;;;;;;4978592;28;20281;-79
2021/09/13 07:15:03;;;;;;;5.75;4.85;;;;;;;;;;4978850;28;25140;-80
2021/09/13 07:17:30;;;;;;;6.03;4.85;;;;;;;;;;4966578;28;20228;-80
2021/09/13 07:19:56;;;;;;;8.25;5.25;;;;;;;;;;4964156;28;20218;-79
2021/09/13 07:22:22;;;;;;;5.97;5.38;;;;;;;;;;4964444;28;20195;-78
2021/09/13 07:24:48;;;;;;;7.80;5.75;;;;;;;;;;4963511;28;20183;-78
2021/09/13 07:27:14;;;;;;;5.75;5.18;;;;;;;;;;4962142;28;20274;-78
2021/09/13 07:29:41;;;;;;;7.80;5.75;;;;;;;;;;4980839;28;20190;-79
2021/09/13 07:32:07;;;;;;;8.68;6.55;;;;;;;;;;4964518;29;20204;-79
2021/09/13 07:34:35;;;;;;;8.88;6.28;;;;;;;;;;4960796;29;20184;-79
2021/09/13 07:37:01;;;;;;;10.70;7.32;;;;;;;;;;4977218;28;20815;-79
2021/09/13 07:39:28;;;;;;;9.48;6.53;;;;;;;;;;4961844;28;20655;-79
2021/09/13 07:41:54;;;;;;;9.82;6.80;;;;;;;;;;4965291;28;20187;-79
2021/09/13 07:44:20;;;;;;;9.63;6.67;;;;;;;;;;4963294;28;20188;-79
2021/09/13 07:46:46;;;;;;;10.43;6.93;;;;;;;;;;4977989;28;20438;-79
2021/09/13 07:49:12;;;;;;;9.65;8.02;;;;;;;;;;4963700;28;20443;-79
2021/09/13 07:51:38;;;;;;;11.07;7.38;;;;;;;;;;4962893;29;20191;-79
2021/09/13 07:54:08;;;;;;;10.25;7.00;;;;;;;;;;4960589;28;20204;-79
2021/09/13 07:56:34;;;;;;;11.23;6.95;;;;;;;;;;4964764;28;20195;-79
2021/09/13 07:59:03;;;;;;;7.70;6.20;;;;;;;;;;4961935;28;20220;-79
2021/09/13 08:01:29;;;;;;;9.10;6.32;;;;;;;;;;4961816;28;20220;-79
2021/09/13 08:03:55;;;;;;;11.05;7.32;;;;;;;;;;4961142;28;20199;-80
2021/09/13 08:06:21;;;;;;;11.95;7.13;;;;;;;;;;4960689;28;20251;-80
2021/09/13 08:08:48;;;;;;;8.20;7.32;;;;;;;;;;4965282;28;20191;-79
2021/09/13 08:11:14;;;;;;;11.40;6.90;;;;;;;;;;4963281;28;20227;-80
2021/09/13 08:13:41;;;;;;;10.82;7.95;;;;;;;;;;4960360;28;20585;-80
2021/09/13 08:16:07;;;;;;;11.15;7.07;;;;;;;;;;4961613;28;20208;-79
2021/09/13 08:18:33;;;;;;;8.18;6.82;;;;;;;;;;4961986;28;20216;-79
2021/09/13 08:20:59;;;;;;;15.43;7.30;;;;;;;;;;4964364;28;20187;-79
2021/09/13 08:23:25;;;;;;;10.63;7.03;;;;;;;;;;4963836;28;20169;-79
2021/09/13 08:25:51;;;;;;;10.25;6.70;;;;;;;;;;4960437;28;20447;-79
2021/09/13 08:28:20;;;;;;;9.73;6.70;;;;;;;;;;4961610;28;20196;-79
2021/09/13 08:30:47;;;;;;;9.07;6.50;;;;;;;;;;4960791;28;20786;-79
2021/09/13 08:33:13;;;;;;;8.25;6.03;;;;;;;;;;4975555;28;20193;-79
2021/09/13 08:35:39;;;;;;;10.10;8.05;;;;;;;;;;4965455;28;20779;-80
2021/09/13 08:38:05;;;;;;;9.27;5.50;;;;;;;;;;4960291;28;20212;-79
2021/09/13 08:40:31;;;;;;;12.07;6.75;;;;;;;;;;4962716;28;20419;-80
2021/09/13 08:42:58;;;;;;;6.20;5.18;;;;;;;;;;4961207;28;20185;-79
2021/09/13 08:45:49;;;;;;;8.32;7.28;;;;;;;;;;4976307;28;20260;-79
2021/09/13 08:53:50;;;;;;;9.68;6.45;;;;;;;;;;4968863;28;20183;-79
2021/09/13 08:56:16;;;;;;;10.00;5.63;;;;;;;;;;4960221;28;20207;-80
2021/09/13 08:58:43;;;;;;;7.18;6.10;;;;;;;;;;4958515;28;21748;-79
2021/09/13 09:01:11;;;;;;;9.00;7.22;;;;;;;;;;4958423;28;20225;-80
2021/09/13 09:03:37;;;;;;;9.57;7.13;;;;;;;;;;4959188;28;20188;-79
2021/09/13 09:06:03;;;;;;;12.55;6.95;;;;;;;;;;4959256;28;20181;-80
2021/09/13 09:08:30;;;;;;;10.30;6.97;;;;;;;;;;4961403;28;20256;-79
2021/09/13 09:11:06;;;;;;;9.02;6.40;;;;;;;;;;4964138;28;20677;-79
2021/09/13 09:13:41;;;;;;;15.13;6.13;;;;;;;;;;4942116;28;20284;-80
2021/09/13 09:16:08;;;;;;;7.72;6.10;;;;;;;;;;4958259;28;20201;-79
2021/09/13 09:18:38;;;;;;;11.88;7.55;;;;;;;;;;4951186;29;20221;-80
2021/09/13 09:21:04;;;;;;;7.82;5.78;;;;;;;;;;4963014;28;20202;-80
2021/09/13 09:23:30;;;;;;;5.95;5.05;;;;;;;;;;4970113;28;20169;-79
2021/09/13 09:26:10;;;;;;;5.40;4.82;;;;;;;;;;4961498;28;20190;-79
2021/09/13 09:28:36;;;;;;;9.15;5.00;;;;;;;;;;4971082;28;20245;-79
2021/09/13 09:31:02;;;;;;;8.17;4.40;;;;;;;;;;4961106;28;20185;-79
2021/09/13 09:33:28;;;;;;;7.57;4.60;;;;;;;;;;4961962;28;20446;-78
2021/09/13 09:35:56;;;;;;;5.60;4.43;;;;;;;;;;4981124;28;20434;-78
2021/09/13 09:38:38;;;;;;;5.38;4.40;;;;;;;;;;4966564;29;20471;-81
2021/09/13 09:41:10;;;;;;;6.55;4.60;;;;;;;;;;4966995;28;20182;-82
2021/09/13 09:43:51;;;;;;;5.10;4.25;;;;;;;;;;4965882;28;20198;-81
2021/09/13 09:46:18;;;;;;;5.13;3.90;;;;;;;;;;4967761;28;20186;-80
2021/09/13 09:48:44;;;;;;;6.18;4.43;;;;;;;;;;4969731;28;20251;-80
2021/09/13 09:51:25;;;;;;;4.95;3.33;;;;;;;;;;4983358;28;20712;-81
2021/09/13 09:53:52;;;;;;;9.63;4.38;;;;;;;;;;4986531;28;20176;-81
2021/09/13 09:56:18;;;;;;;8.52;4.82;;;;;;;;;;4972642;28;20278;-82
2021/09/13 09:58:57;;;;;;;7.15;4.40;;;;;;;;;;4966884;28;20222;-81
2021/09/13 10:01:30;;;;;;;4.72;4.07;;;;;;;;;;4968666;28;20234;-82
2021/09/13 10:03:56;;;;;;;6.37;4.53;;;;;;;;;;4965310;28;20246;-80
2021/09/13 10:06:22;;;;;;;8.80;4.70;;;;;;;;;;4964862;28;20912;-82
2021/09/13 10:08:48;;;;;;;10.50;5.10;;;;;;;;;;4967746;28;20581;-80
2021/09/13 10:11:15;;;;;;;8.10;5.10;;;;;;;;;;4970230;28;20466;-81
2021/09/13 10:13:42;;;;;;;5.63;3.83;;;;;;;;;;4966020;28;20429;-81
2021/09/13 10:16:08;;;;;;;8.90;4.37;;;;;;;;;;4964865;28;20454;-80
2021/09/13 10:18:34;;;;;;;6.27;4.03;;;;;;;;;;4964895;28;20438;-80
2021/09/13 10:21:00;;;;;;;6.03;4.47;;;;;;;;;;4965624;28;20427;-82
2021/09/13 10:23:26;;;;;;;9.03;4.33;;;;;;;;;;4967266;28;20428;-81
2021/09/13 10:25:52;;;;;;;6.17;5.10;;;;;;;;;;4962550;28;20414;-79
2021/09/13 10:28:18;;;;;;;4.80;3.90;;;;;;;;;;4964560;28;20444;-81
2021/09/13 10:30:54;;;;;;;4.53;3.33;;;;;;;;;;4978712;28;20444;-80
2021/09/13 10:33:20;;;;;;;4.93;4.43;;;;;;;;;;4959667;29;20449;-80
2021/09/13 10:36:01;;;;;;;4.50;3.43;;;;;;;;;;4981372;28;20785;-81
2021/09/13 10:38:43;;;;;;;4.80;3.70;;;;;;;;;;4966025;28;20452;-81
2021/09/13 10:41:09;;;;;;;6.33;4.00;;;;;;;;;;4981239;28;20401;-81
2021/09/13 10:43:35;;;;;;;9.13;3.80;;;;;;;;;;4962332;28;20973;-81
2021/09/13 10:46:01;;;;;;;4.97;3.73;;;;;;;;;;4961496;28;20858;-82
2021/09/13 10:48:27;;;;;;;3.00;2.80;;;;;;;;;;4964070;28;20430;-81
2021/09/13 10:50:58;;;;;;;4.93;3.93;;;;;;;;;;4966774;28;20399;-80
2021/09/13 10:53:29;;;;;;;9.53;4.07;;;;;;;;;;4971036;28;20466;-81
2021/09/13 10:55:56;;;;;;;6.40;3.50;;;;;;;;;;4962194;28;20410;-81
2021/09/13 10:58:31;;;;;;;6.73;3.63;;;;;;;;;;4979769;28;20472;-82
2021/09/13 11:00:58;;;;;;;5.53;3.50;;;;;;;;;;4962652;28;20521;-81
2021/09/13 11:06:03;;;;;;;4.97;3.60;;;;;;;;;;4965915;28;20387;-83
2021/09/13 11:08:30;;;;;;;4.33;2.80;;;;;;;;;;4966738;29;20443;-82
2021/09/13 11:10:56;;;;;;;4.30;3.40;;;;;;;;;;4962562;28;20951;-81
2021/09/13 11:13:22;;;;;;;8.03;2.97;;;;;;;;;;4978110;28;20444;-81
2021/09/13 11:15:52;;;;;;;6.60;3.00;;;;;;;;;;4962189;28;20462;-81
2021/09/13 11:18:31;;;;;;;5.70;3.60;;;;;;;;;;4961665;28;20478;-82
2021/09/13 11:21:20;;;;;;;4.87;3.13;;;;;;;;;;4979152;28;20430;-81
2021/09/13 11:23:53;;;;;;;4.13;2.77;;;;;;;;;;4963382;29;20434;-81
2021/09/13 11:26:20;;;;;;;3.43;2.43;;;;;;;;;;4968027;28;20399;-81
2021/09/13 11:28:54;;;;;;;3.93;2.80;;;;;;;;;;4961793;28;20415;-81
2021/09/13 11:31:39;;;;;;;8.10;2.77;;;;;;;;;;4961437;28;20448;-82
2021/09/13 11:34:18;;;;;;;5.23;2.90;;;;;;;;;;4978257;28;20482;-82
2021/09/13 11:36:50;;;;;;;2.60;2.40;;;;;;;;;;4976987;28;20419;-81
2021/09/13 11:39:17;;;;;;;5.33;2.70;;;;;;;;;;4963349;28;20482;-81
2021/09/13 11:41:53;;;;;;;5.30;3.20;;;;;;;;;;4965859;28;20479;-81
2021/09/13 11:44:19;;;;;;;4.83;2.80;;;;;;;;;;4963982;28;20412;-80
2021/09/13 11:46:58;;;;;;;6.70;4.97;;;;;;;;;;4962103;28;20435;-81
2021/09/13 11:49:29;;;;;;;5.03;3.10;;;;;;;;;;4961467;28;20436;-82
2021/09/13 11:52:05;;;;;;;5.80;2.83;;;;;;;;;;4962346;28;20747;-82
2021/09/13 11:54:32;;;;;;;3.67;2.23;;;;;;;;;;4961487;28;20466;-81
2021/09/13 11:56:58;;;;;;;3.83;3.03;;;;;;;;;;4979143;28;20430;-83
2021/09/13 11:59:25;;;;;;;4.93;2.67;;;;;;;;;;4962794;28;20424;-82
2021/09/13 12:01:57;;;;;;;2.83;2.63;;;;;;;;;;4961465;28;20467;-82
2021/09/13 12:04:23;;;;;;;3.37;2.50;;;;;;;;;;4963270;28;20450;-81
2021/09/13 12:07:05;;;;;;;3.70;2.90;;;;;;;;;;4962003;28;20444;-82
2021/09/13 12:09:32;;;;;;;2.83;2.13;;;;;;;;;;4962692;28;20455;-82
2021/09/13 12:11:58;;;;;;;3.53;2.53;;;;;;;;;;4979078;28;20986;-81
2021/09/13 12:14:24;;;;;;;3.53;2.57;;;;;;;;;;4963320;28;20470;-81
2021/09/13 12:17:09;;;;;;;2.37;2.17;;;;;;;;;;4960653;28;20954;-81
2021/09/13 12:19:35;;;;;;;2.67;2.40;;;;;;;;;;4962025;28;20780;-80
2021/09/13 12:22:03;;;;;;;3.67;2.60;;;;;;;;;;4961493;29;20447;-82
2021/09/13 12:24:29;;;;;;;3.10;2.40;;;;;;;;;;4962274;28;20440;-81
2021/09/13 12:26:55;;;;;;;2.93;2.63;;;;;;;;;;4964360;28;20692;-82
2021/09/13 12:29:21;;;;;;;3.83;2.30;;;;;;;;;;4962965;28;20435;-84
2021/09/13 12:31:47;;;;;;;2.63;2.43;;;;;;;;;;4959924;28;20479;-82
2021/09/13 12:34:15;;;;;;;4.23;2.93;;;;;;;;;;4961425;28;20445;-81
2021/09/13 12:36:41;;;;;;;2.80;2.47;;;;;;;;;;4961202;28;20440;-81
2021/09/13 12:39:08;;;;;;;2.90;2.60;;;;;;;;;;4961877;28;20473;-81
2021/09/13 12:41:38;;;;;;;2.43;2.23;;;;;;;;;;4966251;28;20443;-81
2021/09/13 12:44:13;;;;;;;4.80;2.60;;;;;;;;;;4977329;28;20981;-88
2021/09/13 12:46:47;;;;;;;2.60;2.40;;;;;;;;;;4962739;28;20473;-80
2021/09/13 12:49:13;;;;;;;2.80;2.50;;;;;;;;;;4962702;28;20432;-79
2021/09/13 12:51:39;;;;;;;3.43;3.17;;;;;;;;;;4975024;28;20438;-80
2021/09/13 12:54:06;;;;;;;2.30;2.20;;;;;;;;;;4962761;28;21070;-81
2021/09/13 12:56:42;;;;;;;3.27;2.47;;;;;;;;;;4964028;29;20501;-81
2021/09/13 12:59:09;;;;;;;2.80;2.20;;;;;;;;;;4962626;29;20463;-81
2021/09/13 13:01:37;;;;;;;3.03;2.70;;;;;;;;;;4961696;28;20487;-80
2021/09/13 13:04:04;;;;;;;2.70;2.50;;;;;;;;;;4978324;28;20472;-79
2021/09/13 13:06:30;;;;;;;2.73;2.27;;;;;;;;;;4960510;28;20520;-81
2021/09/13 13:08:56;;;;;;;2.57;2.37;;;;;;;;;;4955873;28;20561;-80
2021/09/13 13:11:22;;;;;;;2.47;2.27;;;;;;;;;;4961617;28;20435;-81
2021/09/13 13:13:48;;;;;;;3.00;2.30;;;;;;;;;;4965908;28;20961;-80
2021/09/13 13:16:14;;;;;;;4.47;2.40;;;;;;;;;;4964374;28;20451;-81
2021/09/13 13:18:40;;;;;;;2.37;2.17;;;;;;;;;;4980541;28;20460;-81
2021/09/13 13:21:06;;;;;;;2.77;2.57;;;;;;;;;;4981724;28;20474;-82
2021/09/13 13:23:32;;;;;;;2.27;2.07;;;;;;;;;;4968289;29;20430;-81
2021/09/13 13:25:58;;;;;;;2.80;2.43;;;;;;;;;;4965046;28;20451;-81
2021/09/13 13:28:25;;;;;;;2.70;2.20;;;;;;;;;;4963955;28;20452;-81
2021/09/13 13:30:51;;;;;;;2.80;2.60;;;;;;;;;;4963839;28;20451;-82
2021/09/13 13:33:17;;;;;;;3.53;2.47;;;;;;;;;;4965149;28;20994;-81
2021/09/13 13:35:43;;;;;;;2.73;2.53;;;;;;;;;;4982716;28;20467;-80
2021/09/13 13:38:10;;;;;;;2.03;1.93;;;;;;;;;;4966728;28;20467;-81
2021/09/13 13:40:36;;;;;;;3.10;2.40;;;;;;;;;;4979830;28;20440;-81
2021/09/13 13:43:03;;;;;;;2.60;2.40;;;;;;;;;;4964344;28;20451;-81
2021/09/13 13:45:30;;;;;;;3.00;2.43;;;;;;;;;;4964301;28;20856;-81
2021/09/13 13:47:57;;;;;;;3.67;2.53;;;;;;;;;;4981904;28;20442;-80
2021/09/13 13:50:23;;;;;;;4.90;2.80;;;;;;;;;;4963533;28;20447;-81
2021/09/13 13:52:49;;;;;;;2.43;2.10;;;;;;;;;;4963321;29;20440;-81
2021/09/13 13:55:16;;;;;;;2.30;2.20;;;;;;;;;;4964277;28;20547;-81
2021/09/13 13:57:43;;;;;;;2.93;2.10;;;;;;;;;;4963476;28;20499;-82
2021/09/13 14:00:10;;;;;;;2.90;2.30;;;;;;;;;;4966569;28;20567;-80
2021/09/13 14:02:36;;;;;;;3.13;2.30;;;;;;;;;;4968504;28;20468;-80
2021/09/13 14:05:02;;;;;;;3.27;2.27;;;;;;;;;;4964800;28;20436;-80
2021/09/13 14:07:29;;;;;;;2.90;2.40;;;;;;;;;;4960409;28;20455;-80
2021/09/13 14:09:56;;;;;;;2.33;2.03;;;;;;;;;;4962596;28;20563;-79
2021/09/13 14:12:22;;;;;;;2.33;2.13;;;;;;;;;;4961333;28;20444;-81
2021/09/13 14:14:51;;;;;;;5.73;2.40;;;;;;;;;;4969249;28;20415;-81
2021/09/13 14:17:17;;;;;;;2.40;2.10;;;;;;;;;;4969810;28;22325;-80
2021/09/13 14:19:43;;;;;;;2.60;2.40;;;;;;;;;;4965718;28;20517;-81
2021/09/13 14:22:10;;;;;;;5.53;3.03;;;;;;;;;;4968329;28;20464;-81
2021/09/13 14:24:36;;;;;;;3.97;2.20;;;;;;;;;;4966394;28;20826;-81
2021/09/13 14:27:02;;;;;;;2.33;2.23;;;;;;;;;;4962038;28;20469;-81
2021/09/13 14:29:28;;;;;;;2.50;2.30;;;;;;;;;;4966995;28;20513;-82
2021/09/13 14:31:54;;;;;;;2.30;2.10;;;;;;;;;;4967680;28;20454;-81
2021/09/13 14:34:20;;;;;;;2.20;2.00;;;;;;;;;;4968069;28;20530;-80
2021/09/13 14:36:46;;;;;;;3.00;2.20;;;;;;;;;;4966791;28;20474;-80
2021/09/13 14:39:12;;;;;;;2.67;2.40;;;;;;;;;;4981345;28;20851;-81
2021/09/13 14:41:38;;;;;;;3.17;2.73;;;;;;;;;;4968930;28;20429;-80
2021/09/13 14:44:05;;;;;;;2.63;2.33;;;;;;;;;;4965146;28;20446;-82
2021/09/13 14:46:31;;;;;;;2.80;2.10;;;;;;;;;;4968129;28;20495;-81
2021/09/13 14:48:57;;;;;;;2.57;2.27;;;;;;;;;;4967408;28;20452;-80
2021/09/13 14:51:23;;;;;;;2.60;2.40;;;;;;;;;;4966230;28;20587;-80